Saturday, August 27, 2016
03:02 UTC
  |  Log In   |  Register Free
Airport Search:

Lenawee County Airport
(KADG)

Lenawee County Airport Diagram
No Airport Diagram Available

FAA data valid effective Jul 21 2016 - Sep 15 2016 (unless otherwise noted).

 
 
 
 
 
 
 
 
 
 
 
 
 
 
Current Aviation Weather for KADG

Weather Summary


The most recent METAR observation for ADG was updated at: 12:53 UTC
METAR for ADG is not available. Closest METAR is for
METAR

METAR KADG 270253Z 30003KT 10SM CLR 21/19 A3017 RMK AO2 SLP213 T02110194 51013

METAR KADG 270153Z 00000KT 10SM CLR 22/19 A3016 RMK AO2 SLP212 T02220194

METAR KADG 270053Z 00000KT 10SM CLR 24/20 A3014 RMK AO2 SLP205 T02390200

METAR KARB 270253Z 00000KT 10SM CLR 19/18 A3016 RMK AO2 SLP207 T01890183 51013

METAR KDUH 270255Z 00000KT 10SM CLR 21/19 A3016 RMK AO2 T02110187

METAR KJXN 270256Z 00000KT 10SM CLR 21/19 A3017 RMK AO2 SLP211 T02060194 51012

TAF for ADG is not available.
TAF

KTOL - TAF KTOL 262338Z 2700/2724 VRB03KT P6SM SCT120 OVC250

KTOL - FM271100 10005KT P6SM BKN120 OVC250

KTOL - FM271800 10005KT P6SM SCT050 BKN120 =

KJXN - TAF KJXN 262342Z 2700/2724 VRB03KT P6SM BKN150

KJXN - FM271100 12005KT 5SM -SHRA BR BKN060

KJXN - FM271600 17007KT P6SM VCTS BKN025CB =

KYIP - TAF KYIP 262325Z 2700/2724 VRB03KT P6SM BKN200

KYIP - FM271000 09005KT P6SM BKN120 OVC200

KYIP - FM271400 14005KT P6SM SCT080 BKN120 OVC200

KYIP - FM271900 18007KT P6SM SCT050 BKN200 PROB30 2720/2724 3SM TSRA OVC030CB =

GlobalAir.com is loading additional information.
 Current Weather at ADG
72.0 F° (22.2 C°)

North winds at 0.0 mph
Pressure:
30.16 in
Humidity:
84%
Wind:
North at 0.0 mph
Dew Point:
66.9 F° (19.4 C°)
Visibility:
10.00 mi
ADG NOAA Radar




Find All Airport Services Find A Hotel Find A Rental Car Find A Golf Course Find A Restaurant $100 Hamburger



Airport Weather Forecast for KADG

Translated METAR for KADG (0253 UTC)
METAR:
KADG 270253Z AUTO Lenawee County, Adrian, MI (KADG). Aug 27, 0253Z, Automated. Wind from 300° at 3 knots, 10 statute miles visibility, Clear Skies, Temperature 21°C, Dewpoint 19°C, Altimeter is 30.17. Remarks: automated station with precipitation discriminator sea level pressure 1021.3 hectopascals hourly temp 21.1°C dewpoint 19.4°C 3-hour atmospheric pressure increasing, then steady, or increasing then increasing more slowly by 1.3 hectopascals
Conditions at:
KADG (Lenawee County, MI) observed 0253 UTC 26 August 2016
Temperature:
72.0 F° (22.2 C°)
Dewpoint:
not reported - refer to area weather report
Pressure:
30.16 Hg
Winds:
not reported
Visibility:
10.00
Ceiling:
at least 12,000 feet AGL
Clouds:
not reported - refer to area weather report
Remarks:
site is un-manned

Translated TAF for TAF for ADG is not available. Refer to local area forecast.
FBO's on the Field
FBO Company Facility Photos Services Transportation Aviation Fuel Prices: Prices include tax
Catering Weather Repair Courtesy Rental Type 100LL JetA JetA+ MOGAS 8087
 
Lenawee County Airport

This FBO has not yet been rated
FS:Avfuel
Last Updated: Aug-24
Login to update fuel prices
SS:
Contact Lenawee County AirportMore FBO Information
 
Add another FBO Facility Photos Catering Weather Repair Courtesy Rental Type 100LL JetA JetA+ MOGAS 8087
Services Transportation Aviation Fuel Prices: Prices include tax


model-print
model-print
model-print
model-print